sensor_id;sensor_type;location;lat;lon;timestamp;pressure;altitude;pressure_sealevel;temperature;humidity
35331;BME280;21441;52.190;20.910;2023-02-16T00:01:19;101062.72;;;-0.37;100.00
35331;BME280;21441;52.190;20.910;2023-02-16T00:03:46;101056.75;;;-0.40;100.00
35331;BME280;21441;52.190;20.910;2023-02-16T00:06:14;101064.69;;;-0.42;100.00
35331;BME280;21441;52.190;20.910;2023-02-16T00:08:45;101060.09;;;-0.37;100.00
35331;BME280;21441;52.190;20.910;2023-02-16T00:11:19;101046.34;;;-0.42;100.00
35331;BME280;21441;52.190;20.910;2023-02-16T00:14:07;101053.56;;;-0.46;100.00
35331;BME280;21441;52.190;20.910;2023-02-16T00:16:35;101059.56;;;-0.44;100.00
35331;BME280;21441;52.190;20.910;2023-02-16T00:19:14;101042.78;;;-0.57;100.00
35331;BME280;21441;52.190;20.910;2023-02-16T00:21:42;101045.69;;;-0.46;100.00
35331;BME280;21441;52.190;20.910;2023-02-16T00:24:10;101032.56;;;-0.46;100.00
35331;BME280;21441;52.190;20.910;2023-02-16T00:26:39;101024.25;;;-0.54;100.00
35331;BME280;21441;52.190;20.910;2023-02-16T00:29:10;101028.50;;;-0.51;100.00
35331;BME280;21441;52.190;20.910;2023-02-16T00:31:40;101026.34;;;-0.60;100.00
35331;BME280;21441;52.190;20.910;2023-02-16T00:34:23;101023.44;;;-0.72;100.00
35331;BME280;21441;52.190;20.910;2023-02-16T00:36:51;101023.22;;;-0.67;100.00
35331;BME280;21441;52.190;20.910;2023-02-16T00:39:20;101011.03;;;-0.68;100.00
35331;BME280;21441;52.190;20.910;2023-02-16T00:41:50;100996.63;;;-0.77;100.00
35331;BME280;21441;52.190;20.910;2023-02-16T00:44:22;101012.41;;;-0.61;100.00
35331;BME280;21441;52.190;20.910;2023-02-16T00:46:51;101010.03;;;-0.66;100.00
35331;BME280;21441;52.190;20.910;2023-02-16T00:49:20;101003.69;;;-0.62;100.00
35331;BME280;21441;52.190;20.910;2023-02-16T00:51:48;100994.47;;;-0.69;100.00
35331;BME280;21441;52.190;20.910;2023-02-16T00:54:16;100992.78;;;-0.70;100.00
35331;BME280;21441;52.190;20.910;2023-02-16T00:56:45;100990.06;;;-0.68;100.00
35331;BME280;21441;52.190;20.910;2023-02-16T00:59:15;100992.09;;;-0.73;100.00
35331;BME280;21441;52.190;20.910;2023-02-16T01:01:44;100987.78;;;-0.74;100.00
35331;BME280;21441;52.190;20.910;2023-02-16T01:04:18;100974.94;;;-0.79;100.00
35331;BME280;21441;52.190;20.910;2023-02-16T01:06:46;100983.31;;;-0.72;100.00
35331;BME280;21441;52.190;20.910;2023-02-16T01:09:30;100976.63;;;-0.95;100.00
35331;BME280;21441;52.190;20.910;2023-02-16T01:12:18;100973.31;;;-0.99;100.00
35331;BME280;21441;52.190;20.910;2023-02-16T01:14:50;100977.63;;;-0.98;100.00
35331;BME280;21441;52.190;20.910;2023-02-16T01:17:19;100973.16;;;-0.96;100.00
35331;BME280;21441;52.190;20.910;2023-02-16T01:19:46;100971.16;;;-1.08;100.00
35331;BME280;21441;52.190;20.910;2023-02-16T01:22:14;100968.97;;;-1.16;100.00
35331;BME280;21441;52.190;20.910;2023-02-16T01:24:41;100962.47;;;-1.09;100.00
35331;BME280;21441;52.190;20.910;2023-02-16T01:27:10;100970.38;;;-0.93;100.00
35331;BME280;21441;52.190;20.910;2023-02-16T01:29:39;100969.84;;;-0.99;100.00
35331;BME280;21441;52.190;20.910;2023-02-16T01:32:09;100974.06;;;-0.97;100.00
35331;BME280;21441;52.190;20.910;2023-02-16T01:34:36;100973.31;;;-0.99;100.00
35331;BME280;21441;52.190;20.910;2023-02-16T01:37:04;100948.44;;;-1.08;100.00
35331;BME280;21441;52.190;20.910;2023-02-16T01:39:31;100951.28;;;-1.12;100.00
35331;BME280;21441;52.190;20.910;2023-02-16T01:42:09;100947.84;;;-1.13;100.00
35331;BME280;21441;52.190;20.910;2023-02-16T01:44:41;100952.69;;;-1.05;100.00
35331;BME280;21441;52.190;20.910;2023-02-16T01:47:23;100947.34;;;-1.04;100.00
35331;BME280;21441;52.190;20.910;2023-02-16T01:49:53;100930.56;;;-0.99;100.00
35331;BME280;21441;52.190;20.910;2023-02-16T01:52:27;100941.28;;;-1.04;100.00
35331;BME280;21441;52.190;20.910;2023-02-16T01:55:00;100946.94;;;-0.78;100.00
35331;BME280;21441;52.190;20.910;2023-02-16T01:57:35;100941.38;;;-0.72;100.00
35331;BME280;21441;52.190;20.910;2023-02-16T02:00:12;100933.75;;;-0.77;100.00
35331;BME280;21441;52.190;20.910;2023-02-16T02:02:43;100936.53;;;-0.80;100.00
35331;BME280;21441;52.190;20.910;2023-02-16T02:05:20;100928.06;;;-0.85;100.00
35331;BME280;21441;52.190;20.910;2023-02-16T02:08:08;100919.00;;;-0.95;100.00
35331;BME280;21441;52.190;20.910;2023-02-16T02:10:43;100931.34;;;-0.97;100.00
35331;BME280;21441;52.190;20.910;2023-02-16T02:13:18;100917.25;;;-1.12;100.00
35331;BME280;21441;52.190;20.910;2023-02-16T02:15:47;100930.97;;;-1.07;100.00
35331;BME280;21441;52.190;20.910;2023-02-16T02:18:15;100929.91;;;-1.20;100.00
35331;BME280;21441;52.190;20.910;2023-02-16T02:20:55;100920.84;;;-1.31;100.00
35331;BME280;21441;52.190;20.910;2023-02-16T02:24:10;100921.38;;;-1.41;100.00
35331;BME280;21441;52.190;20.910;2023-02-16T02:26:58;100914.47;;;-1.42;100.00
35331;BME280;21441;52.190;20.910;2023-02-16T02:29:47;100911.44;;;-1.35;100.00
35331;BME280;21441;52.190;20.910;2023-02-16T02:32:27;100909.47;;;-1.47;100.00
35331;BME280;21441;52.190;20.910;2023-02-16T02:35:06;100910.31;;;-1.47;100.00
35331;BME280;21441;52.190;20.910;2023-02-16T02:37:45;100905.38;;;-1.35;100.00
35331;BME280;21441;52.190;20.910;2023-02-16T02:40:20;100901.13;;;-1.38;100.00
35331;BME280;21441;52.190;20.910;2023-02-16T02:42:58;100900.50;;;-1.26;100.00
35331;BME280;21441;52.190;20.910;2023-02-16T02:45:31;100866.06;;;-1.51;100.00
35331;BME280;21441;52.190;20.910;2023-02-16T02:47:59;100894.81;;;-1.34;100.00
35331;BME280;21441;52.190;20.910;2023-02-16T02:50:39;100899.41;;;-1.21;100.00
35331;BME280;21441;52.190;20.910;2023-02-16T02:53:28;100903.97;;;-1.25;100.00
35331;BME280;21441;52.190;20.910;2023-02-16T02:55:58;100863.94;;;-1.27;100.00
35331;BME280;21441;52.190;20.910;2023-02-16T02:58:46;100887.56;;;-0.95;100.00
35331;BME280;21441;52.190;20.910;2023-02-16T03:01:35;100875.50;;;-0.98;100.00
35331;BME280;21441;52.190;20.910;2023-02-16T03:04:03;100878.94;;;-0.97;100.00
35331;BME280;21441;52.190;20.910;2023-02-16T03:06:34;100882.44;;;-1.14;100.00
35331;BME280;21441;52.190;20.910;2023-02-16T03:09:05;100871.81;;;-1.11;100.00
35331;BME280;21441;52.190;20.910;2023-02-16T03:11:34;100865.22;;;-1.18;100.00
35331;BME280;21441;52.190;20.910;2023-02-16T03:14:24;100866.41;;;-1.08;100.00
35331;BME280;21441;52.190;20.910;2023-02-16T03:16:56;100843.53;;;-1.20;100.00
35331;BME280;21441;52.190;20.910;2023-02-16T03:19:42;100844.81;;;-1.12;100.00
35331;BME280;21441;52.190;20.910;2023-02-16T03:22:27;100850.88;;;-1.11;100.00
35331;BME280;21441;52.190;20.910;2023-02-16T03:25:13;100833.91;;;-1.37;100.00
35331;BME280;21441;52.190;20.910;2023-02-16T03:27:59;100853.13;;;-1.21;100.00
35331;BME280;21441;52.190;20.910;2023-02-16T03:30:49;100850.84;;;-1.27;100.00
35331;BME280;21441;52.190;20.910;2023-02-16T03:33:18;100853.75;;;-1.16;100.00
35331;BME280;21441;52.190;20.910;2023-02-16T03:35:46;100846.66;;;-1.14;100.00
35331;BME280;21441;52.190;20.910;2023-02-16T03:38:15;100828.16;;;-1.44;100.00
35331;BME280;21441;52.190;20.910;2023-02-16T03:40:43;100850.34;;;-1.18;100.00
35331;BME280;21441;52.190;20.910;2023-02-16T03:43:12;100837.50;;;-1.22;100.00
35331;BME280;21441;52.190;20.910;2023-02-16T03:45:41;100829.16;;;-1.47;100.00
35331;BME280;21441;52.190;20.910;2023-02-16T03:48:11;100829.31;;;-1.50;100.00
35331;BME280;21441;52.190;20.910;2023-02-16T03:50:38;100826.88;;;-1.53;100.00
35331;BME280;21441;52.190;20.910;2023-02-16T03:53:05;100828.25;;;-1.63;100.00
35331;BME280;21441;52.190;20.910;2023-02-16T03:55:34;100814.25;;;-1.62;100.00
35331;BME280;21441;52.190;20.910;2023-02-16T03:58:02;100813.50;;;-1.64;100.00
35331;BME280;21441;52.190;20.910;2023-02-16T04:00:29;100812.13;;;-1.71;100.00
35331;BME280;21441;52.190;20.910;2023-02-16T04:02:57;100747.00;;;-2.11;100.00
35331;BME280;21441;52.190;20.910;2023-02-16T04:05:26;100807.56;;;-1.68;100.00
35331;BME280;21441;52.190;20.910;2023-02-16T04:07:54;100806.25;;;-1.59;100.00
35331;BME280;21441;52.190;20.910;2023-02-16T04:10:22;100808.94;;;-1.60;100.00
35331;BME280;21441;52.190;20.910;2023-02-16T04:12:50;100798.63;;;-1.63;100.00
35331;BME280;21441;52.190;20.910;2023-02-16T04:15:18;100804.41;;;-1.57;100.00
35331;BME280;21441;52.190;20.910;2023-02-16T04:17:46;100799.75;;;-1.52;100.00
35331;BME280;21441;52.190;20.910;2023-02-16T04:20:15;100797.44;;;-1.40;100.00
35331;BME280;21441;52.190;20.910;2023-02-16T04:22:45;100794.44;;;-1.50;100.00
35331;BME280;21441;52.190;20.910;2023-02-16T04:25:13;100796.16;;;-1.49;100.00
35331;BME280;21441;52.190;20.910;2023-02-16T04:27:41;100793.53;;;-1.49;100.00
35331;BME280;21441;52.190;20.910;2023-02-16T04:30:12;100798.84;;;-1.51;100.00
35331;BME280;21441;52.190;20.910;2023-02-16T04:32:40;100793.22;;;-1.60;100.00
35331;BME280;21441;52.190;20.910;2023-02-16T04:35:08;100793.88;;;-1.39;100.00
35331;BME280;21441;52.190;20.910;2023-02-16T04:37:36;100783.84;;;-1.47;100.00
35331;BME280;21441;52.190;20.910;2023-02-16T04:40:06;100796.75;;;-1.44;100.00
35331;BME280;21441;52.190;20.910;2023-02-16T04:42:34;100796.13;;;-1.32;100.00
35331;BME280;21441;52.190;20.910;2023-02-16T04:45:01;100793.78;;;-1.20;100.00
35331;BME280;21441;52.190;20.910;2023-02-16T04:47:29;100788.44;;;-1.19;100.00
35331;BME280;21441;52.190;20.910;2023-02-16T04:49:56;100794.28;;;-1.14;100.00
35331;BME280;21441;52.190;20.910;2023-02-16T04:52:24;100790.97;;;-1.17;100.00
35331;BME280;21441;52.190;20.910;2023-02-16T04:54:51;100767.53;;;-1.36;100.00
35331;BME280;21441;52.190;20.910;2023-02-16T04:57:20;100800.94;;;-1.08;100.00
35331;BME280;21441;52.190;20.910;2023-02-16T04:59:48;100801.88;;;-1.09;100.00
35331;BME280;21441;52.190;20.910;2023-02-16T05:02:16;100782.53;;;-1.07;100.00
35331;BME280;21441;52.190;20.910;2023-02-16T05:04:43;100794.22;;;-0.96;100.00
35331;BME280;21441;52.190;20.910;2023-02-16T05:07:11;100790.47;;;-0.92;100.00
35331;BME280;21441;52.190;20.910;2023-02-16T05:09:39;100795.72;;;-1.08;100.00
35331;BME280;21441;52.190;20.910;2023-02-16T05:12:06;100792.19;;;-1.07;100.00
35331;BME280;21441;52.190;20.910;2023-02-16T05:14:52;100791.41;;;-1.09;100.00
35331;BME280;21441;52.190;20.910;2023-02-16T05:17:22;100792.25;;;-1.09;100.00
35331;BME280;21441;52.190;20.910;2023-02-16T05:19:51;100789.13;;;-0.99;100.00
35331;BME280;21441;52.190;20.910;2023-02-16T05:22:19;100747.63;;;-1.23;100.00
35331;BME280;21441;52.190;20.910;2023-02-16T05:24:46;100778.31;;;-1.09;100.00
35331;BME280;21441;52.190;20.910;2023-02-16T05:27:15;100779.41;;;-1.13;100.00
35331;BME280;21441;52.190;20.910;2023-02-16T05:29:43;100767.72;;;-1.39;100.00
35331;BME280;21441;52.190;20.910;2023-02-16T05:32:12;100775.06;;;-1.30;100.00
35331;BME280;21441;52.190;20.910;2023-02-16T05:34:40;100786.25;;;-1.27;100.00
35331;BME280;21441;52.190;20.910;2023-02-16T05:37:09;100784.22;;;-1.21;100.00
35331;BME280;21441;52.190;20.910;2023-02-16T05:39:40;100774.19;;;-1.13;100.00
35331;BME280;21441;52.190;20.910;2023-02-16T05:42:08;100766.66;;;-1.19;100.00
35331;BME280;21441;52.190;20.910;2023-02-16T05:44:36;100760.38;;;-1.33;100.00
35331;BME280;21441;52.190;20.910;2023-02-16T05:47:04;100776.34;;;-1.37;100.00
35331;BME280;21441;52.190;20.910;2023-02-16T05:49:32;100773.72;;;-1.37;100.00
35331;BME280;21441;52.190;20.910;2023-02-16T05:52:00;100777.53;;;-1.27;100.00
35331;BME280;21441;52.190;20.910;2023-02-16T05:54:27;100773.53;;;-1.34;100.00
35331;BME280;21441;52.190;20.910;2023-02-16T05:56:55;100769.25;;;-1.19;100.00
35331;BME280;21441;52.190;20.910;2023-02-16T05:59:22;100770.13;;;-1.03;100.00
35331;BME280;21441;52.190;20.910;2023-02-16T06:01:50;100759.47;;;-1.16;100.00
35331;BME280;21441;52.190;20.910;2023-02-16T06:04:18;100756.09;;;-1.18;100.00
35331;BME280;21441;52.190;20.910;2023-02-16T06:06:47;100775.19;;;-1.00;100.00
35331;BME280;21441;52.190;20.910;2023-02-16T06:09:15;100776.72;;;-0.96;100.00
35331;BME280;21441;52.190;20.910;2023-02-16T06:11:42;100771.75;;;-1.00;100.00
35331;BME280;21441;52.190;20.910;2023-02-16T06:14:11;100773.06;;;-1.25;100.00
35331;BME280;21441;52.190;20.910;2023-02-16T06:16:41;100768.94;;;-0.97;100.00
35331;BME280;21441;52.190;20.910;2023-02-16T06:19:10;100752.31;;;-0.96;100.00
35331;BME280;21441;52.190;20.910;2023-02-16T06:21:38;100768.59;;;-0.91;100.00
35331;BME280;21441;52.190;20.910;2023-02-16T06:24:08;100775.03;;;-0.81;100.00
35331;BME280;21441;52.190;20.910;2023-02-16T06:26:37;100775.38;;;-0.87;100.00
35331;BME280;21441;52.190;20.910;2023-02-16T06:29:05;100764.88;;;-0.87;100.00
35331;BME280;21441;52.190;20.910;2023-02-16T06:31:33;100772.75;;;-0.71;100.00
35331;BME280;21441;52.190;20.910;2023-02-16T06:34:01;100758.47;;;-0.66;100.00
35331;BME280;21441;52.190;20.910;2023-02-16T06:36:29;100755.16;;;-0.69;100.00
35331;BME280;21441;52.190;20.910;2023-02-16T06:38:56;100747.72;;;-0.77;100.00
35331;BME280;21441;52.190;20.910;2023-02-16T06:41:25;100751.19;;;-0.76;100.00
35331;BME280;21441;52.190;20.910;2023-02-16T06:44:01;100756.25;;;-0.73;100.00
35331;BME280;21441;52.190;20.910;2023-02-16T06:46:29;100762.25;;;-0.71;100.00
35331;BME280;21441;52.190;20.910;2023-02-16T06:48:57;100754.78;;;-0.47;100.00
35331;BME280;21441;52.190;20.910;2023-02-16T06:51:25;100740.50;;;-0.57;100.00
35331;BME280;21441;52.190;20.910;2023-02-16T06:53:53;100762.56;;;-0.46;100.00
35331;BME280;21441;52.190;20.910;2023-02-16T06:56:21;100749.72;;;-0.50;100.00
35331;BME280;21441;52.190;20.910;2023-02-16T06:58:49;100757.19;;;-0.28;100.00
35331;BME280;21441;52.190;20.910;2023-02-16T07:01:17;100758.78;;;-0.26;100.00
35331;BME280;21441;52.190;20.910;2023-02-16T07:03:47;100736.97;;;-0.26;100.00
35331;BME280;21441;52.190;20.910;2023-02-16T07:06:15;100766.38;;;0.09;100.00
35331;BME280;21441;52.190;20.910;2023-02-16T07:08:42;100750.44;;;0.12;100.00
35331;BME280;21441;52.190;20.910;2023-02-16T07:11:10;100750.75;;;0.36;100.00
35331;BME280;21441;52.190;20.910;2023-02-16T07:13:38;100753.28;;;0.67;100.00
35331;BME280;21441;52.190;20.910;2023-02-16T07:16:07;100737.69;;;0.78;100.00
35331;BME280;21441;52.190;20.910;2023-02-16T07:18:34;100749.03;;;1.20;100.00
35331;BME280;21441;52.190;20.910;2023-02-16T07:21:02;100747.75;;;1.40;100.00
35331;BME280;21441;52.190;20.910;2023-02-16T07:23:31;100753.16;;;1.51;100.00
35331;BME280;21441;52.190;20.910;2023-02-16T07:25:58;100752.66;;;1.59;100.00
35331;BME280;21441;52.190;20.910;2023-02-16T07:28:26;100746.09;;;1.79;100.00
35331;BME280;21441;52.190;20.910;2023-02-16T07:30:53;100751.25;;;1.93;100.00
35331;BME280;21441;52.190;20.910;2023-02-16T07:33:22;100752.25;;;2.31;100.00
35331;BME280;21441;52.190;20.910;2023-02-16T07:35:49;100746.28;;;2.78;100.00
35331;BME280;21441;52.190;20.910;2023-02-16T07:38:17;100743.38;;;2.70;100.00
35331;BME280;21441;52.190;20.910;2023-02-16T07:40:45;100735.50;;;2.94;100.00
35331;BME280;21441;52.190;20.910;2023-02-16T07:43:12;100739.66;;;2.85;100.00
35331;BME280;21441;52.190;20.910;2023-02-16T07:45:39;100743.66;;;2.65;100.00
35331;BME280;21441;52.190;20.910;2023-02-16T07:48:07;100733.88;;;2.67;100.00
35331;BME280;21441;52.190;20.910;2023-02-16T07:50:36;100736.13;;;2.98;100.00
35331;BME280;21441;52.190;20.910;2023-02-16T07:53:03;100719.75;;;2.68;100.00
35331;BME280;21441;52.190;20.910;2023-02-16T07:55:31;100738.75;;;2.98;100.00
35331;BME280;21441;52.190;20.910;2023-02-16T07:57:58;100732.97;;;2.93;100.00
35331;BME280;21441;52.190;20.910;2023-02-16T08:00:26;100729.63;;;2.91;100.00
35331;BME280;21441;52.190;20.910;2023-02-16T08:02:53;100734.53;;;2.58;100.00
35331;BME280;21441;52.190;20.910;2023-02-16T08:05:21;100732.63;;;2.60;100.00
35331;BME280;21441;52.190;20.910;2023-02-16T08:07:50;100718.53;;;2.48;100.00
35331;BME280;21441;52.190;20.910;2023-02-16T08:10:18;100726.69;;;2.69;100.00
35331;BME280;21441;52.190;20.910;2023-02-16T08:12:45;100713.31;;;2.73;100.00
35331;BME280;21441;52.190;20.910;2023-02-16T08:15:15;100714.50;;;2.68;100.00
35331;BME280;21441;52.190;20.910;2023-02-16T08:17:42;100714.47;;;2.81;100.00
35331;BME280;21441;52.190;20.910;2023-02-16T08:20:12;100716.22;;;2.94;100.00
35331;BME280;21441;52.190;20.910;2023-02-16T08:22:39;100707.09;;;3.35;100.00
35331;BME280;21441;52.190;20.910;2023-02-16T08:25:09;100727.34;;;3.10;100.00
35331;BME280;21441;52.190;20.910;2023-02-16T08:27:36;100720.09;;;3.01;100.00
35331;BME280;21441;52.190;20.910;2023-02-16T08:30:04;100725.09;;;2.93;100.00
35331;BME280;21441;52.190;20.910;2023-02-16T08:32:37;100709.41;;;2.65;100.00
35331;BME280;21441;52.190;20.910;2023-02-16T08:35:06;100733.75;;;3.19;100.00
35331;BME280;21441;52.190;20.910;2023-02-16T08:37:33;100731.44;;;3.14;100.00
35331;BME280;21441;52.190;20.910;2023-02-16T08:40:01;100713.81;;;2.91;100.00
35331;BME280;21441;52.190;20.910;2023-02-16T08:42:30;100725.97;;;3.04;100.00
35331;BME280;21441;52.190;20.910;2023-02-16T08:44:58;100731.72;;;3.22;100.00
35331;BME280;21441;52.190;20.910;2023-02-16T08:47:25;100740.47;;;2.99;100.00
35331;BME280;21441;52.190;20.910;2023-02-16T08:49:54;100719.69;;;3.18;100.00
35331;BME280;21441;52.190;20.910;2023-02-16T08:52:22;100724.47;;;3.37;100.00
35331;BME280;21441;52.190;20.910;2023-02-16T08:54:49;100728.28;;;3.09;100.00
35331;BME280;21441;52.190;20.910;2023-02-16T08:57:17;100732.88;;;3.42;100.00
35331;BME280;21441;52.190;20.910;2023-02-16T08:59:46;100727.44;;;3.57;100.00
35331;BME280;21441;52.190;20.910;2023-02-16T09:02:33;100711.19;;;3.74;100.00
35331;BME280;21441;52.190;20.910;2023-02-16T09:05:01;100713.94;;;3.37;100.00
35331;BME280;21441;52.190;20.910;2023-02-16T09:07:28;100709.97;;;3.07;100.00
35331;BME280;21441;52.190;20.910;2023-02-16T09:10:00;100720.50;;;3.32;100.00
35331;BME280;21441;52.190;20.910;2023-02-16T09:12:27;100720.28;;;3.70;100.00
35331;BME280;21441;52.190;20.910;2023-02-16T09:14:57;100711.63;;;4.26;100.00
35331;BME280;21441;52.190;20.910;2023-02-16T09:17:24;100708.53;;;4.54;100.00
35331;BME280;21441;52.190;20.910;2023-02-16T09:19:53;100719.50;;;3.92;100.00
35331;BME280;21441;52.190;20.910;2023-02-16T09:22:20;100710.59;;;3.82;100.00
35331;BME280;21441;52.190;20.910;2023-02-16T09:24:48;100712.97;;;4.09;100.00
35331;BME280;21441;52.190;20.910;2023-02-16T09:27:16;100694.13;;;4.13;100.00
35331;BME280;21441;52.190;20.910;2023-02-16T09:29:45;100713.66;;;5.01;100.00
35331;BME280;21441;52.190;20.910;2023-02-16T09:32:13;100699.47;;;5.88;100.00
35331;BME280;21441;52.190;20.910;2023-02-16T09:34:42;100703.88;;;6.19;99.16
35331;BME280;21441;52.190;20.910;2023-02-16T09:37:11;100705.97;;;6.56;89.24
35331;BME280;21441;52.190;20.910;2023-02-16T09:39:39;100703.16;;;6.48;85.44
35331;BME280;21441;52.190;20.910;2023-02-16T09:42:18;100703.94;;;6.70;78.18
35331;BME280;21441;52.190;20.910;2023-02-16T09:44:53;100702.75;;;6.22;80.93
35331;BME280;21441;52.190;20.910;2023-02-16T09:47:28;100681.34;;;6.04;82.82
35331;BME280;21441;52.190;20.910;2023-02-16T09:49:57;100704.50;;;5.91;83.94
35331;BME280;21441;52.190;20.910;2023-02-16T09:52:31;100704.28;;;6.96;76.66
35331;BME280;21441;52.190;20.910;2023-02-16T09:55:05;100699.28;;;7.12;72.28
35331;BME280;21441;52.190;20.910;2023-02-16T09:57:45;100696.25;;;6.67;74.17
35331;BME280;21441;52.190;20.910;2023-02-16T10:00:28;100706.28;;;7.23;71.93
35331;BME280;21441;52.190;20.910;2023-02-16T10:03:03;100696.66;;;7.61;68.22
35331;BME280;21441;52.190;20.910;2023-02-16T10:05:42;100691.91;;;8.31;62.50
35331;BME280;21441;52.190;20.910;2023-02-16T10:08:14;100679.84;;;8.74;60.64
35331;BME280;21441;52.190;20.910;2023-02-16T10:10:47;100683.63;;;9.17;57.85
35331;BME280;21441;52.190;20.910;2023-02-16T10:13:21;100692.31;;;7.50;64.58
35331;BME280;21441;52.190;20.910;2023-02-16T10:15:53;100684.91;;;7.05;67.21
35331;BME280;21441;52.190;20.910;2023-02-16T10:18:27;100674.09;;;6.87;70.27
35331;BME280;21441;52.190;20.910;2023-02-16T10:20:59;100657.25;;;7.37;67.34
35331;BME280;21441;52.190;20.910;2023-02-16T10:23:39;100676.28;;;6.63;72.94
35331;BME280;21441;52.190;20.910;2023-02-16T10:26:15;100668.44;;;6.51;75.24
35331;BME280;21441;52.190;20.910;2023-02-16T10:28:49;100670.22;;;8.91;62.08
35331;BME280;21441;52.190;20.910;2023-02-16T10:31:23;100669.25;;;8.64;60.27
35331;BME280;21441;52.190;20.910;2023-02-16T10:37:11;100638.13;;;11.75;52.33
35331;BME280;21441;52.190;20.910;2023-02-16T10:39:47;100646.97;;;11.19;52.17
35331;BME280;21441;52.190;20.910;2023-02-16T10:42:23;100639.53;;;13.21;48.86
35331;BME280;21441;52.190;20.910;2023-02-16T10:44:58;100623.19;;;15.02;43.82
35331;BME280;21441;52.190;20.910;2023-02-16T10:47:34;100605.28;;;16.70;41.70
35331;BME280;21441;52.190;20.910;2023-02-16T10:50:05;100600.22;;;15.99;41.80
35331;BME280;21441;52.190;20.910;2023-02-16T10:52:39;100598.09;;;15.38;42.24
35331;BME280;21441;52.190;20.910;2023-02-16T10:55:07;100601.59;;;16.71;39.95
35331;BME280;21441;52.190;20.910;2023-02-16T10:57:35;100601.66;;;16.37;40.03
35331;BME280;21441;52.190;20.910;2023-02-16T11:00:06;100595.91;;;15.27;41.42
35331;BME280;21441;52.190;20.910;2023-02-16T11:02:37;100588.34;;;14.73;42.74
35331;BME280;21441;52.190;20.910;2023-02-16T11:07:53;100584.41;;;14.54;43.33
35331;BME280;21441;52.190;20.910;2023-02-16T11:10:34;100592.56;;;14.60;43.11
35331;BME280;21441;52.190;20.910;2023-02-16T11:13:03;100596.84;;;14.25;43.77
35331;BME280;21441;52.190;20.910;2023-02-16T11:15:30;100590.03;;;14.74;43.16
35331;BME280;21441;52.190;20.910;2023-02-16T11:18:02;100571.91;;;15.47;41.25
35331;BME280;21441;52.190;20.910;2023-02-16T11:20:32;100582.94;;;15.59;41.62
35331;BME280;21441;52.190;20.910;2023-02-16T11:23:20;100578.09;;;15.47;41.19
35331;BME280;21441;52.190;20.910;2023-02-16T11:25:54;100567.66;;;14.52;42.92
35331;BME280;21441;52.190;20.910;2023-02-16T11:28:29;100581.66;;;14.17;43.88
35331;BME280;21441;52.190;20.910;2023-02-16T11:31:20;100573.16;;;15.73;41.71
35331;BME280;21441;52.190;20.910;2023-02-16T11:33:57;100573.88;;;16.84;39.81
35331;BME280;21441;52.190;20.910;2023-02-16T11:36:31;100567.28;;;16.39;40.28
35331;BME280;21441;52.190;20.910;2023-02-16T11:39:04;100577.19;;;15.90;41.08
35331;BME280;21441;52.190;20.910;2023-02-16T11:41:33;100549.78;;;17.76;38.17
35331;BME280;21441;52.190;20.910;2023-02-16T11:44:02;100567.66;;;19.69;35.45
35331;BME280;21441;52.190;20.910;2023-02-16T11:46:38;100561.88;;;19.15;35.41
35331;BME280;21441;52.190;20.910;2023-02-16T11:49:28;100557.41;;;19.28;35.12
35331;BME280;21441;52.190;20.910;2023-02-16T11:51:56;100551.38;;;20.31;34.48
35331;BME280;21441;52.190;20.910;2023-02-16T11:54:26;100539.38;;;18.90;35.72
35331;BME280;21441;52.190;20.910;2023-02-16T11:57:03;100547.56;;;16.25;39.99
35331;BME280;21441;52.190;20.910;2023-02-16T11:59:35;100561.69;;;17.35;38.72
35331;BME280;21441;52.190;20.910;2023-02-16T12:05:30;100560.66;;;16.41;39.67
35331;BME280;21441;52.190;20.910;2023-02-16T12:08:28;100553.59;;;16.27;40.43
35331;BME280;21441;52.190;20.910;2023-02-16T12:11:20;100554.00;;;15.89;41.30
35331;BME280;21441;52.190;20.910;2023-02-16T12:13:59;100557.75;;;17.24;39.80
35331;BME280;21441;52.190;20.910;2023-02-16T12:16:35;100527.03;;;16.17;40.42
35331;BME280;21441;52.190;20.910;2023-02-16T12:19:23;100550.47;;;15.88;41.99
35331;BME280;21441;52.190;20.910;2023-02-16T12:22:00;100549.09;;;14.20;44.86
35331;BME280;21441;52.190;20.910;2023-02-16T12:24:41;100529.06;;;13.72;45.85
35331;BME280;21441;52.190;20.910;2023-02-16T12:27:17;100552.28;;;14.82;44.36
35331;BME280;21441;52.190;20.910;2023-02-16T12:29:55;100554.97;;;14.82;43.96
35331;BME280;21441;52.190;20.910;2023-02-16T12:32:43;100541.00;;;14.87;44.32
35331;BME280;21441;52.190;20.910;2023-02-16T12:35:30;100540.00;;;14.73;44.61
35331;BME280;21441;52.190;20.910;2023-02-16T12:38:06;100552.50;;;14.80;44.60
35331;BME280;21441;52.190;20.910;2023-02-16T12:40:46;100547.31;;;15.50;43.34
35331;BME280;21441;52.190;20.910;2023-02-16T12:43:34;100552.75;;;13.68;46.86
35331;BME280;21441;52.190;20.910;2023-02-16T12:46:10;100547.34;;;14.28;45.86
35331;BME280;21441;52.190;20.910;2023-02-16T12:48:44;100539.94;;;13.40;47.25
35331;BME280;21441;52.190;20.910;2023-02-16T12:51:15;100550.00;;;13.38;48.07
35331;BME280;21441;52.190;20.910;2023-02-16T12:53:48;100536.06;;;15.40;44.08
35331;BME280;21441;52.190;20.910;2023-02-16T12:56:20;100539.13;;;15.65;43.96
35331;BME280;21441;52.190;20.910;2023-02-16T12:59:00;100534.47;;;16.15;42.61
35331;BME280;21441;52.190;20.910;2023-02-16T13:01:32;100540.34;;;15.62;43.61
35331;BME280;21441;52.190;20.910;2023-02-16T13:04:06;100530.75;;;14.75;44.73
35331;BME280;21441;52.190;20.910;2023-02-16T13:06:44;100521.41;;;16.05;42.56
35331;BME280;21441;52.190;20.910;2023-02-16T13:09:23;100536.72;;;15.42;44.17